Terminal Aerodrome Forecast
Issued by NWS

Home | Current Version | Previous Version | Text Only | Print | Product List | Glossary On
Versions: 1 2 3 4 5 6 7 8 9 10 11 12 13 14 15 16 17 18 19 20
000
FTUS41 KBGM 250800 AAA
TAFELM
TAF AMD
KELM 250844Z 2509/2606 25018G33KT P6SM BKN035
     FM251300 26018G30KT P6SM OVC025
     FM252000 27012G20KT P6SM BKN035
     FM260100 27012KT P6SM BKN050=

USA.gov is the U.S. government's official web portal to all federal, state and local government web resources and services.